全部
Kubin Airport (Kubin Island, Queensland) KUG 天氣
There is no TAF data available at KUG. Showing TAF data for YHID (25 mi S).
HID終端機場天氣預報(KUG無資料)
| Here is the undecoded forecast: 2026/05/04 23:19 YHID 042319Z 0500/0600 12018KT 9999 SCT025 FM051000 14012KT 9999 SCT025 INTER 0518/0600 4000 SHRA BKN014 RMK T 28 29 29 27 Q 1012 1009 1008 1009 |
There is no METAR data available at KUG. Showing METAR data for YHID (25 mi S).
HID近期METAR歷史資料(KUG無資料)
| Date | Time (AEST) | Flight Rules | Wind Dir. | Speed | Type | Height AGL (ft) | Visibility | Temp (°C) | Temp (°F) | Dew Point (°C) | Dew Point (°F) | Rel. Humid. | Pressure | Density Altitude | Remarks |
|---|---|---|---|---|---|---|---|---|---|---|---|---|---|---|---|
| 05-五月 | 13:00 | VFR | 110° | 15 kt | 10000 meters | 30° | 86° | 22° | 71° | 62% | 1009 mb | 1,967 ft | |||
| 05-五月 | 12:30 | VFR | 110° | 16 kt | 10000 meters | 29° | 84° | 21° | 69° | 62% | 1010 mb | 1,818 ft | |||
| 05-五月 | 12:00 | VFR | 130° | 14 kt | Few |
2,800 |
10000 meters | 30° | 86° | 23° | 73° | 66% | 1010 mb | 1,938 ft | |
| 05-五月 | 11:30 | VFR | 130° | 14 kt | 10000 meters | 29° | 84° | 22° | 71° | 66% | 1011 mb | 1,788 ft | |||
| 05-五月 | 11:00 | VFR | 130° | 15 kt | 10000 meters | 29° | 84° | 20° | 68° | 58% | 1011 mb | 1,788 ft | |||
| 05-五月 | 10:30 | VFR | 110° | 15 kt | 10000 meters | 28° | 82° | 22° | 71° | 70% | 1012 mb | 1,639 ft | |||
| 05-五月 | 10:00 | VFR | 110° | 15 kt | 10000 meters | 29° | 84° | 22° | 71° | 66% | 1012 mb | 1,759 ft | |||
| 05-五月 | 09:30 | VFR | 120° | 15 kt | 10000 meters | 29° | 84° | 22° | 71° | 66% | 1012 mb | 1,759 ft | |||
| 05-五月 | 09:00 | VFR | 120° | 11 kt | 10000 meters | 28° | 82° | 22° | 71° | 70% | 1012 mb | 1,639 ft | |||
| 05-五月 | 08:30 | VFR | 140° | 9 kt | 10000 meters | 27° | 80° | 23° | 73° | 79% | 1012 mb | 1,519 ft | |||
| 05-五月 | 08:00 | VFR | 140° | 8 kt | 10000 meters | 27° | 80° | 22° | 71° | 74% | 1012 mb | 1,519 ft | |||
| 05-五月 | 07:30 | VFR | 150° | 9 kt | 10000 meters | 26° | 78° | 23° | 73° | 84% | 1011 mb | 1,428 ft | |||
| 05-五月 | 07:00 | VFR | 160° | 7 kt | 10000 meters | 25° | 77° | 23° | 73° | 89% | 1011 mb | 1,308 ft | |||
| 05-五月 | 06:30 | VFR | 160° | 6 kt | 10000 meters | 25° | 77° | 23° | 73° | 89% | 1011 mb | 1,308 ft | |||
| 05-五月 | 06:00 | VFR | 170° | 5 kt | 10000 meters | 25° | 77° | 23° | 73° | 89% | 1010 mb | 1,338 ft | |||
| 05-五月 | 05:30 | VFR | 160° | 4 kt | Scattered Scattered |
2,300 2,700 |
10000 meters | 25° | 77° | 23° | 73° | 89% | 1010 mb | 1,338 ft | |
| 05-五月 | 05:00 | VFR | 150° | 4 kt | 10000 meters | 25° | 77° | 23° | 73° | 89% | 1010 mb | 1,338 ft | |||
| 05-五月 | 04:30 | VFR | 150° | 5 kt | 10000 meters | 25° | 77° | 23° | 73° | 89% | 1010 mb | 1,338 ft | |||
| 05-五月 | 04:00 | VFR | 140° | 6 kt | 10000 meters | 25° | 77° | 23° | 73° | 89% | 1010 mb | 1,338 ft | |||
| 05-五月 | 03:30 | VFR | 150° | 6 kt | Few |
2,200 |
10000 meters | 25° | 77° | 23° | 73° | 89% | 1010 mb | 1,338 ft | |
| 05-五月 | 03:00 | VFR | 150° | 7 kt | 10000 meters | 25° | 77° | 23° | 73° | 89% | 1010 mb | 1,338 ft | |||
| 05-五月 | 02:30 | VFR | 150° | 9 kt | 10000 meters | 25° | 77° | 23° | 73° | 89% | 1010 mb | 1,338 ft | |||
| 05-五月 | 02:00 | VFR | 150° | 7 kt | 10000 meters | 25° | 77° | 23° | 73° | 89% | 1010 mb | 1,338 ft | |||
| 05-五月 | 01:30 | VFR | 160° | 7 kt | 10000 meters | 26° | 78° | 23° | 73° | 84% | 1011 mb | 1,428 ft |
登入
| 您的瀏覽器不支援. 升級您的瀏覽器 |
